sensor_id;sensor_type;location;lat;lon;timestamp;P1;durP1;ratioP1;P2;durP2;ratioP2
13981;SDS011;7065;50.880;5.502;2023-04-06T00:01:38;24.48;;;18.48;;
13981;SDS011;7065;50.880;5.502;2023-04-06T00:04:04;24.95;;;19.15;;
13981;SDS011;7065;50.880;5.502;2023-04-06T00:06:31;25.63;;;19.90;;
13981;SDS011;7065;50.880;5.502;2023-04-06T00:08:58;25.65;;;19.33;;
13981;SDS011;7065;50.880;5.502;2023-04-06T00:11:25;24.38;;;17.95;;
13981;SDS011;7065;50.880;5.502;2023-04-06T00:13:51;21.20;;;18.20;;
13981;SDS011;7065;50.880;5.502;2023-04-06T00:16:17;24.90;;;18.33;;
13981;SDS011;7065;50.880;5.502;2023-04-06T00:18:42;22.98;;;18.27;;
13981;SDS011;7065;50.880;5.502;2023-04-06T00:21:11;23.30;;;16.65;;
13981;SDS011;7065;50.880;5.502;2023-04-06T00:23:38;27.08;;;18.60;;
13981;SDS011;7065;50.880;5.502;2023-04-06T00:26:04;28.48;;;19.02;;
13981;SDS011;7065;50.880;5.502;2023-04-06T00:28:30;29.05;;;20.08;;
13981;SDS011;7065;50.880;5.502;2023-04-06T00:30:56;26.30;;;19.20;;
13981;SDS011;7065;50.880;5.502;2023-04-06T00:33:22;23.95;;;17.85;;
13981;SDS011;7065;50.880;5.502;2023-04-06T00:35:48;22.30;;;16.40;;
13981;SDS011;7065;50.880;5.502;2023-04-06T00:38:14;19.85;;;15.73;;
13981;SDS011;7065;50.880;5.502;2023-04-06T00:40:40;24.77;;;17.55;;
13981;SDS011;7065;50.880;5.502;2023-04-06T00:43:07;25.90;;;18.73;;
13981;SDS011;7065;50.880;5.502;2023-04-06T00:45:34;24.90;;;18.42;;
13981;SDS011;7065;50.880;5.502;2023-04-06T00:48:01;27.33;;;19.25;;
13981;SDS011;7065;50.880;5.502;2023-04-06T00:50:30;26.23;;;19.60;;
13981;SDS011;7065;50.880;5.502;2023-04-06T00:52:55;28.75;;;19.25;;
13981;SDS011;7065;50.880;5.502;2023-04-06T00:55:21;28.70;;;20.80;;
13981;SDS011;7065;50.880;5.502;2023-04-06T00:57:47;28.10;;;20.27;;
13981;SDS011;7065;50.880;5.502;2023-04-06T01:00:13;29.67;;;20.77;;
13981;SDS011;7065;50.880;5.502;2023-04-06T01:02:40;27.00;;;18.85;;
13981;SDS011;7065;50.880;5.502;2023-04-06T01:05:06;26.55;;;18.23;;
13981;SDS011;7065;50.880;5.502;2023-04-06T01:07:32;30.10;;;18.90;;
13981;SDS011;7065;50.880;5.502;2023-04-06T01:09:58;31.00;;;20.25;;
13981;SDS011;7065;50.880;5.502;2023-04-06T01:12:24;29.17;;;18.92;;
13981;SDS011;7065;50.880;5.502;2023-04-06T01:14:49;30.63;;;19.63;;
13981;SDS011;7065;50.880;5.502;2023-04-06T01:17:15;29.85;;;19.65;;
13981;SDS011;7065;50.880;5.502;2023-04-06T01:19:42;28.38;;;20.00;;
13981;SDS011;7065;50.880;5.502;2023-04-06T01:22:13;28.73;;;18.67;;
13981;SDS011;7065;50.880;5.502;2023-04-06T01:24:40;30.40;;;19.67;;
13981;SDS011;7065;50.880;5.502;2023-04-06T01:27:06;30.67;;;19.38;;
13981;SDS011;7065;50.880;5.502;2023-04-06T01:29:32;31.70;;;20.25;;
13981;SDS011;7065;50.880;5.502;2023-04-06T01:31:58;30.05;;;20.15;;
13981;SDS011;7065;50.880;5.502;2023-04-06T01:34:24;32.20;;;21.02;;
13981;SDS011;7065;50.880;5.502;2023-04-06T01:36:49;31.73;;;20.63;;
13981;SDS011;7065;50.880;5.502;2023-04-06T01:39:15;35.28;;;19.73;;
13981;SDS011;7065;50.880;5.502;2023-04-06T01:41:41;31.88;;;20.15;;
13981;SDS011;7065;50.880;5.502;2023-04-06T01:44:08;31.55;;;19.65;;
13981;SDS011;7065;50.880;5.502;2023-04-06T01:46:33;28.63;;;18.20;;
13981;SDS011;7065;50.880;5.502;2023-04-06T01:48:59;25.08;;;17.67;;
13981;SDS011;7065;50.880;5.502;2023-04-06T01:51:25;28.10;;;18.95;;
13981;SDS011;7065;50.880;5.502;2023-04-06T01:53:51;28.17;;;17.67;;
13981;SDS011;7065;50.880;5.502;2023-04-06T01:56:17;28.80;;;19.50;;
13981;SDS011;7065;50.880;5.502;2023-04-06T01:58:43;30.58;;;21.33;;
13981;SDS011;7065;50.880;5.502;2023-04-06T02:01:08;28.00;;;19.30;;
13981;SDS011;7065;50.880;5.502;2023-04-06T02:03:36;27.27;;;20.70;;
13981;SDS011;7065;50.880;5.502;2023-04-06T02:06:02;27.52;;;17.85;;
13981;SDS011;7065;50.880;5.502;2023-04-06T02:08:28;23.88;;;16.58;;
13981;SDS011;7065;50.880;5.502;2023-04-06T02:10:54;25.38;;;17.23;;
13981;SDS011;7065;50.880;5.502;2023-04-06T02:13:20;30.75;;;20.42;;
13981;SDS011;7065;50.880;5.502;2023-04-06T02:15:45;28.42;;;20.48;;
13981;SDS011;7065;50.880;5.502;2023-04-06T02:18:11;26.83;;;18.10;;
13981;SDS011;7065;50.880;5.502;2023-04-06T02:20:37;27.23;;;19.63;;
13981;SDS011;7065;50.880;5.502;2023-04-06T02:23:03;28.75;;;18.55;;
13981;SDS011;7065;50.880;5.502;2023-04-06T02:25:29;31.25;;;20.05;;
13981;SDS011;7065;50.880;5.502;2023-04-06T02:27:55;29.48;;;20.20;;
13981;SDS011;7065;50.880;5.502;2023-04-06T02:30:21;28.52;;;18.88;;
13981;SDS011;7065;50.880;5.502;2023-04-06T02:32:47;25.25;;;18.42;;
13981;SDS011;7065;50.880;5.502;2023-04-06T02:35:12;26.50;;;18.15;;
13981;SDS011;7065;50.880;5.502;2023-04-06T02:37:38;27.38;;;17.75;;
13981;SDS011;7065;50.880;5.502;2023-04-06T02:40:04;29.27;;;19.67;;
13981;SDS011;7065;50.880;5.502;2023-04-06T02:42:31;27.30;;;19.05;;
13981;SDS011;7065;50.880;5.502;2023-04-06T02:44:57;30.15;;;20.88;;
13981;SDS011;7065;50.880;5.502;2023-04-06T02:47:23;28.20;;;20.83;;
13981;SDS011;7065;50.880;5.502;2023-04-06T02:49:49;31.88;;;21.23;;
13981;SDS011;7065;50.880;5.502;2023-04-06T02:52:15;30.13;;;19.67;;
13981;SDS011;7065;50.880;5.502;2023-04-06T02:54:42;30.95;;;21.67;;
13981;SDS011;7065;50.880;5.502;2023-04-06T02:57:08;30.60;;;21.83;;
13981;SDS011;7065;50.880;5.502;2023-04-06T02:59:34;34.83;;;22.17;;
13981;SDS011;7065;50.880;5.502;2023-04-06T03:01:59;28.67;;;20.13;;
13981;SDS011;7065;50.880;5.502;2023-04-06T03:04:26;29.70;;;20.85;;
13981;SDS011;7065;50.880;5.502;2023-04-06T03:06:52;39.38;;;25.45;;
13981;SDS011;7065;50.880;5.502;2023-04-06T03:09:19;41.78;;;27.58;;
13981;SDS011;7065;50.880;5.502;2023-04-06T03:11:44;34.60;;;24.05;;
13981;SDS011;7065;50.880;5.502;2023-04-06T03:14:10;40.70;;;26.42;;
13981;SDS011;7065;50.880;5.502;2023-04-06T03:16:36;39.78;;;25.95;;
13981;SDS011;7065;50.880;5.502;2023-04-06T03:19:01;35.65;;;25.58;;
13981;SDS011;7065;50.880;5.502;2023-04-06T03:21:27;36.35;;;26.15;;
13981;SDS011;7065;50.880;5.502;2023-04-06T03:23:53;35.08;;;24.33;;
13981;SDS011;7065;50.880;5.502;2023-04-06T03:26:19;31.92;;;23.63;;
13981;SDS011;7065;50.880;5.502;2023-04-06T03:28:45;35.38;;;24.05;;
13981;SDS011;7065;50.880;5.502;2023-04-06T03:31:11;32.15;;;22.70;;
13981;SDS011;7065;50.880;5.502;2023-04-06T03:33:36;30.55;;;21.63;;
13981;SDS011;7065;50.880;5.502;2023-04-06T03:36:02;33.05;;;23.38;;
13981;SDS011;7065;50.880;5.502;2023-04-06T03:38:28;30.70;;;22.33;;
13981;SDS011;7065;50.880;5.502;2023-04-06T03:40:54;33.08;;;22.77;;
13981;SDS011;7065;50.880;5.502;2023-04-06T03:43:20;29.85;;;22.60;;
13981;SDS011;7065;50.880;5.502;2023-04-06T03:45:46;31.63;;;22.60;;
13981;SDS011;7065;50.880;5.502;2023-04-06T03:48:12;33.15;;;21.73;;
13981;SDS011;7065;50.880;5.502;2023-04-06T03:50:37;29.48;;;22.08;;
13981;SDS011;7065;50.880;5.502;2023-04-06T03:53:03;31.25;;;22.20;;
13981;SDS011;7065;50.880;5.502;2023-04-06T03:55:29;28.80;;;21.75;;
13981;SDS011;7065;50.880;5.502;2023-04-06T03:57:55;34.50;;;22.05;;
13981;SDS011;7065;50.880;5.502;2023-04-06T04:00:21;32.08;;;21.10;;
13981;SDS011;7065;50.880;5.502;2023-04-06T04:02:46;30.50;;;20.40;;
13981;SDS011;7065;50.880;5.502;2023-04-06T04:05:12;33.08;;;21.05;;
13981;SDS011;7065;50.880;5.502;2023-04-06T04:07:38;30.38;;;21.98;;
13981;SDS011;7065;50.880;5.502;2023-04-06T04:10:04;41.85;;;22.50;;
13981;SDS011;7065;50.880;5.502;2023-04-06T04:12:30;38.55;;;20.67;;
13981;SDS011;7065;50.880;5.502;2023-04-06T04:14:55;31.40;;;20.95;;
13981;SDS011;7065;50.880;5.502;2023-04-06T04:17:21;27.40;;;20.20;;
13981;SDS011;7065;50.880;5.502;2023-04-06T04:19:47;26.73;;;20.05;;
13981;SDS011;7065;50.880;5.502;2023-04-06T04:22:12;32.58;;;18.90;;
13981;SDS011;7065;50.880;5.502;2023-04-06T04:24:39;26.15;;;19.25;;
13981;SDS011;7065;50.880;5.502;2023-04-06T04:27:04;25.90;;;17.92;;
13981;SDS011;7065;50.880;5.502;2023-04-06T04:29:30;26.05;;;18.45;;
13981;SDS011;7065;50.880;5.502;2023-04-06T04:31:56;26.98;;;19.30;;
13981;SDS011;7065;50.880;5.502;2023-04-06T04:34:22;28.85;;;20.10;;
13981;SDS011;7065;50.880;5.502;2023-04-06T04:36:51;26.48;;;18.40;;
13981;SDS011;7065;50.880;5.502;2023-04-06T04:39:17;31.15;;;21.10;;
13981;SDS011;7065;50.880;5.502;2023-04-06T04:41:43;27.58;;;19.58;;
13981;SDS011;7065;50.880;5.502;2023-04-06T04:44:09;26.50;;;19.00;;
13981;SDS011;7065;50.880;5.502;2023-04-06T04:46:35;28.33;;;19.08;;
13981;SDS011;7065;50.880;5.502;2023-04-06T04:49:01;28.58;;;19.30;;
13981;SDS011;7065;50.880;5.502;2023-04-06T04:51:27;26.10;;;19.17;;
13981;SDS011;7065;50.880;5.502;2023-04-06T04:53:53;26.75;;;18.75;;
13981;SDS011;7065;50.880;5.502;2023-04-06T04:56:18;26.15;;;18.05;;
13981;SDS011;7065;50.880;5.502;2023-04-06T04:58:44;24.05;;;18.27;;
13981;SDS011;7065;50.880;5.502;2023-04-06T05:01:10;28.58;;;19.15;;
13981;SDS011;7065;50.880;5.502;2023-04-06T05:03:36;26.83;;;17.88;;
13981;SDS011;7065;50.880;5.502;2023-04-06T05:06:04;24.40;;;17.75;;
13981;SDS011;7065;50.880;5.502;2023-04-06T05:08:30;25.73;;;17.95;;
13981;SDS011;7065;50.880;5.502;2023-04-06T05:10:56;25.15;;;17.42;;
13981;SDS011;7065;50.880;5.502;2023-04-06T05:13:22;24.35;;;18.50;;
13981;SDS011;7065;50.880;5.502;2023-04-06T05:15:48;21.45;;;16.80;;
13981;SDS011;7065;50.880;5.502;2023-04-06T05:18:14;23.48;;;16.77;;
13981;SDS011;7065;50.880;5.502;2023-04-06T05:20:40;21.20;;;16.20;;
13981;SDS011;7065;50.880;5.502;2023-04-06T05:23:07;23.20;;;16.58;;
13981;SDS011;7065;50.880;5.502;2023-04-06T05:25:33;26.55;;;17.63;;
13981;SDS011;7065;50.880;5.502;2023-04-06T05:27:59;21.98;;;16.10;;
13981;SDS011;7065;50.880;5.502;2023-04-06T05:30:25;31.95;;;16.92;;
13981;SDS011;7065;50.880;5.502;2023-04-06T05:32:51;57.22;;;19.75;;
13981;SDS011;7065;50.880;5.502;2023-04-06T05:35:16;24.27;;;15.82;;
13981;SDS011;7065;50.880;5.502;2023-04-06T05:37:42;24.58;;;16.00;;
13981;SDS011;7065;50.880;5.502;2023-04-06T05:40:08;30.20;;;15.38;;
13981;SDS011;7065;50.880;5.502;2023-04-06T05:42:41;24.80;;;16.33;;
13981;SDS011;7065;50.880;5.502;2023-04-06T05:45:09;23.48;;;15.02;;
13981;SDS011;7065;50.880;5.502;2023-04-06T05:47:43;20.08;;;14.25;;
13981;SDS011;7065;50.880;5.502;2023-04-06T05:50:09;20.00;;;14.65;;
13981;SDS011;7065;50.880;5.502;2023-04-06T05:52:36;17.85;;;13.02;;
13981;SDS011;7065;50.880;5.502;2023-04-06T05:55:02;21.30;;;14.20;;
13981;SDS011;7065;50.880;5.502;2023-04-06T05:57:28;18.27;;;14.27;;
13981;SDS011;7065;50.880;5.502;2023-04-06T05:59:54;20.73;;;14.93;;
13981;SDS011;7065;50.880;5.502;2023-04-06T06:02:20;19.00;;;15.00;;
13981;SDS011;7065;50.880;5.502;2023-04-06T06:04:47;19.48;;;14.82;;
13981;SDS011;7065;50.880;5.502;2023-04-06T06:07:14;20.02;;;13.98;;
13981;SDS011;7065;50.880;5.502;2023-04-06T06:09:40;21.23;;;14.98;;
13981;SDS011;7065;50.880;5.502;2023-04-06T06:12:06;21.63;;;14.38;;
13981;SDS011;7065;50.880;5.502;2023-04-06T06:14:32;16.40;;;12.70;;
13981;SDS011;7065;50.880;5.502;2023-04-06T06:16:58;21.02;;;14.25;;
13981;SDS011;7065;50.880;5.502;2023-04-06T06:19:24;24.35;;;14.88;;
13981;SDS011;7065;50.880;5.502;2023-04-06T06:21:50;17.85;;;12.90;;
13981;SDS011;7065;50.880;5.502;2023-04-06T06:24:15;15.93;;;12.57;;
13981;SDS011;7065;50.880;5.502;2023-04-06T06:26:41;17.95;;;13.00;;
13981;SDS011;7065;50.880;5.502;2023-04-06T06:29:08;17.67;;;13.05;;
13981;SDS011;7065;50.880;5.502;2023-04-06T06:31:34;18.67;;;14.00;;
13981;SDS011;7065;50.880;5.502;2023-04-06T06:34:00;16.33;;;12.30;;
13981;SDS011;7065;50.880;5.502;2023-04-06T06:36:27;15.43;;;12.27;;
13981;SDS011;7065;50.880;5.502;2023-04-06T06:38:52;18.30;;;12.40;;
13981;SDS011;7065;50.880;5.502;2023-04-06T06:41:18;17.05;;;11.98;;
13981;SDS011;7065;50.880;5.502;2023-04-06T06:43:44;15.23;;;11.90;;
13981;SDS011;7065;50.880;5.502;2023-04-06T06:46:10;15.15;;;12.77;;
13981;SDS011;7065;50.880;5.502;2023-04-06T06:48:36;17.23;;;11.98;;
13981;SDS011;7065;50.880;5.502;2023-04-06T06:51:01;14.05;;;12.10;;
13981;SDS011;7065;50.880;5.502;2023-04-06T06:53:27;16.70;;;12.32;;
13981;SDS011;7065;50.880;5.502;2023-04-06T06:55:53;12.13;;;10.73;;
13981;SDS011;7065;50.880;5.502;2023-04-06T06:58:19;16.73;;;11.77;;
13981;SDS011;7065;50.880;5.502;2023-04-06T07:00:45;15.15;;;11.65;;
13981;SDS011;7065;50.880;5.502;2023-04-06T07:03:11;14.32;;;11.45;;
13981;SDS011;7065;50.880;5.502;2023-04-06T07:05:37;15.95;;;12.00;;
13981;SDS011;7065;50.880;5.502;2023-04-06T07:08:03;18.63;;;12.15;;
13981;SDS011;7065;50.880;5.502;2023-04-06T07:10:29;16.95;;;11.63;;
13981;SDS011;7065;50.880;5.502;2023-04-06T07:12:55;17.42;;;12.13;;
13981;SDS011;7065;50.880;5.502;2023-04-06T07:15:21;15.95;;;12.20;;
13981;SDS011;7065;50.880;5.502;2023-04-06T07:17:47;15.82;;;10.75;;
13981;SDS011;7065;50.880;5.502;2023-04-06T07:20:12;19.50;;;11.27;;
13981;SDS011;7065;50.880;5.502;2023-04-06T07:22:39;16.63;;;11.63;;
13981;SDS011;7065;50.880;5.502;2023-04-06T07:25:05;14.57;;;10.70;;
13981;SDS011;7065;50.880;5.502;2023-04-06T07:27:31;16.30;;;12.00;;
13981;SDS011;7065;50.880;5.502;2023-04-06T07:29:57;17.52;;;11.93;;
13981;SDS011;7065;50.880;5.502;2023-04-06T07:32:23;18.80;;;12.20;;
13981;SDS011;7065;50.880;5.502;2023-04-06T07:34:49;15.98;;;10.60;;
13981;SDS011;7065;50.880;5.502;2023-04-06T07:37:15;17.05;;;11.52;;
13981;SDS011;7065;50.880;5.502;2023-04-06T07:39:40;18.98;;;12.45;;
13981;SDS011;7065;50.880;5.502;2023-04-06T07:42:06;18.17;;;12.10;;
13981;SDS011;7065;50.880;5.502;2023-04-06T07:44:32;15.07;;;11.50;;
13981;SDS011;7065;50.880;5.502;2023-04-06T07:46:58;17.52;;;11.68;;
13981;SDS011;7065;50.880;5.502;2023-04-06T07:49:23;14.23;;;11.40;;
13981;SDS011;7065;50.880;5.502;2023-04-06T07:51:49;15.77;;;11.07;;
13981;SDS011;7065;50.880;5.502;2023-04-06T07:54:15;14.23;;;11.13;;
13981;SDS011;7065;50.880;5.502;2023-04-06T07:56:40;15.77;;;11.88;;
13981;SDS011;7065;50.880;5.502;2023-04-06T07:59:06;16.30;;;11.77;;
13981;SDS011;7065;50.880;5.502;2023-04-06T08:01:32;17.48;;;11.35;;
13981;SDS011;7065;50.880;5.502;2023-04-06T08:03:57;17.83;;;11.65;;
13981;SDS011;7065;50.880;5.502;2023-04-06T08:06:24;17.75;;;11.82;;
13981;SDS011;7065;50.880;5.502;2023-04-06T08:08:50;17.52;;;11.90;;
13981;SDS011;7065;50.880;5.502;2023-04-06T08:11:15;15.07;;;11.13;;
13981;SDS011;7065;50.880;5.502;2023-04-06T08:13:41;15.88;;;10.98;;
13981;SDS011;7065;50.880;5.502;2023-04-06T08:16:07;17.15;;;10.85;;
13981;SDS011;7065;50.880;5.502;2023-04-06T08:18:32;17.73;;;11.63;;
13981;SDS011;7065;50.880;5.502;2023-04-06T08:20:58;18.13;;;12.13;;
13981;SDS011;7065;50.880;5.502;2023-04-06T08:23:24;17.67;;;12.60;;
13981;SDS011;7065;50.880;5.502;2023-04-06T08:25:50;16.23;;;11.32;;
13981;SDS011;7065;50.880;5.502;2023-04-06T08:28:19;17.70;;;12.20;;
13981;SDS011;7065;50.880;5.502;2023-04-06T08:30:45;15.73;;;11.05;;
13981;SDS011;7065;50.880;5.502;2023-04-06T08:33:11;16.73;;;11.20;;
13981;SDS011;7065;50.880;5.502;2023-04-06T08:35:37;19.17;;;12.40;;
13981;SDS011;7065;50.880;5.502;2023-04-06T08:38:02;19.25;;;11.85;;
13981;SDS011;7065;50.880;5.502;2023-04-06T08:40:28;19.23;;;11.93;;
13981;SDS011;7065;50.880;5.502;2023-04-06T08:42:55;15.20;;;12.02;;
13981;SDS011;7065;50.880;5.502;2023-04-06T08:45:21;15.20;;;11.27;;
13981;SDS011;7065;50.880;5.502;2023-04-06T08:47:49;16.00;;;11.10;;
13981;SDS011;7065;50.880;5.502;2023-04-06T08:50:16;15.50;;;10.90;;
13981;SDS011;7065;50.880;5.502;2023-04-06T08:52:43;16.83;;;11.25;;
13981;SDS011;7065;50.880;5.502;2023-04-06T08:55:11;15.50;;;11.85;;
13981;SDS011;7065;50.880;5.502;2023-04-06T08:57:37;17.50;;;11.30;;
13981;SDS011;7065;50.880;5.502;2023-04-06T09:00:04;15.35;;;11.55;;
13981;SDS011;7065;50.880;5.502;2023-04-06T09:02:31;14.65;;;11.38;;
13981;SDS011;7065;50.880;5.502;2023-04-06T09:04:58;13.57;;;10.68;;
13981;SDS011;7065;50.880;5.502;2023-04-06T09:07:25;14.93;;;10.90;;
13981;SDS011;7065;50.880;5.502;2023-04-06T09:09:50;14.55;;;10.82;;
13981;SDS011;7065;50.880;5.502;2023-04-06T09:12:23;17.48;;;11.00;;
13981;SDS011;7065;50.880;5.502;2023-04-06T09:14:50;14.60;;;10.75;;
13981;SDS011;7065;50.880;5.502;2023-04-06T09:17:19;12.95;;;10.13;;
13981;SDS011;7065;50.880;5.502;2023-04-06T09:19:50;14.40;;;10.23;;
13981;SDS011;7065;50.880;5.502;2023-04-06T09:22:16;13.70;;;10.35;;
13981;SDS011;7065;50.880;5.502;2023-04-06T09:24:46;16.77;;;11.30;;
13981;SDS011;7065;50.880;5.502;2023-04-06T09:27:14;15.35;;;10.82;;
13981;SDS011;7065;50.880;5.502;2023-04-06T09:29:41;16.08;;;10.15;;
13981;SDS011;7065;50.880;5.502;2023-04-06T09:32:07;14.57;;;10.48;;
13981;SDS011;7065;50.880;5.502;2023-04-06T09:34:38;12.93;;;10.00;;
13981;SDS011;7065;50.880;5.502;2023-04-06T09:37:16;12.75;;;9.88;;
13981;SDS011;7065;50.880;5.502;2023-04-06T09:39:43;13.68;;;10.10;;
13981;SDS011;7065;50.880;5.502;2023-04-06T09:42:11;11.88;;;9.85;;
13981;SDS011;7065;50.880;5.502;2023-04-06T09:44:49;14.05;;;9.75;;
13981;SDS011;7065;50.880;5.502;2023-04-06T09:47:14;12.48;;;9.90;;
13981;SDS011;7065;50.880;5.502;2023-04-06T09:49:41;13.75;;;9.57;;
13981;SDS011;7065;50.880;5.502;2023-04-06T09:52:10;12.73;;;9.68;;
13981;SDS011;7065;50.880;5.502;2023-04-06T09:54:37;11.70;;;9.02;;
13981;SDS011;7065;50.880;5.502;2023-04-06T09:59:38;12.40;;;9.57;;
13981;SDS011;7065;50.880;5.502;2023-04-06T10:02:14;10.38;;;8.40;;
13981;SDS011;7065;50.880;5.502;2023-04-06T10:04:59;9.23;;;8.05;;
13981;SDS011;7065;50.880;5.502;2023-04-06T10:07:30;12.85;;;8.95;;
13981;SDS011;7065;50.880;5.502;2023-04-06T10:09:56;12.25;;;9.32;;
13981;SDS011;7065;50.880;5.502;2023-04-06T10:12:25;12.57;;;8.77;;
13981;SDS011;7065;50.880;5.502;2023-04-06T10:14:51;15.63;;;9.07;;
13981;SDS011;7065;50.880;5.502;2023-04-06T10:17:17;11.32;;;9.80;;
13981;SDS011;7065;50.880;5.502;2023-04-06T10:22:28;11.63;;;8.88;;
13981;SDS011;7065;50.880;5.502;2023-04-06T10:25:00;13.13;;;9.40;;
13981;SDS011;7065;50.880;5.502;2023-04-06T10:27:29;14.55;;;10.73;;
13981;SDS011;7065;50.880;5.502;2023-04-06T10:30:00;13.27;;;10.32;;
13981;SDS011;7065;50.880;5.502;2023-04-06T10:32:34;13.43;;;9.73;;
13981;SDS011;7065;50.880;5.502;2023-04-06T10:35:05;12.63;;;10.25;;
13981;SDS011;7065;50.880;5.502;2023-04-06T10:37:59;10.70;;;8.82;;
13981;SDS011;7065;50.880;5.502;2023-04-06T10:40:26;12.60;;;9.98;;
13981;SDS011;7065;50.880;5.502;2023-04-06T10:42:53;15.00;;;9.77;;
13981;SDS011;7065;50.880;5.502;2023-04-06T10:45:24;13.32;;;9.30;;
13981;SDS011;7065;50.880;5.502;2023-04-06T10:47:54;13.60;;;9.55;;
13981;SDS011;7065;50.880;5.502;2023-04-06T10:50:20;11.98;;;9.15;;
13981;SDS011;7065;50.880;5.502;2023-04-06T10:52:47;13.48;;;9.57;;
13981;SDS011;7065;50.880;5.502;2023-04-06T10:55:29;11.35;;;9.40;;
13981;SDS011;7065;50.880;5.502;2023-04-06T10:57:56;11.18;;;8.93;;
13981;SDS011;7065;50.880;5.502;2023-04-06T11:00:22;9.65;;;8.38;;
13981;SDS011;7065;50.880;5.502;2023-04-06T11:02:48;10.85;;;8.75;;
13981;SDS011;7065;50.880;5.502;2023-04-06T11:05:14;11.85;;;9.32;;
13981;SDS011;7065;50.880;5.502;2023-04-06T11:07:40;11.23;;;8.65;;
13981;SDS011;7065;50.880;5.502;2023-04-06T11:10:09;10.50;;;8.60;;
13981;SDS011;7065;50.880;5.502;2023-04-06T11:12:35;11.85;;;8.75;;
13981;SDS011;7065;50.880;5.502;2023-04-06T11:15:02;11.63;;;8.70;;
13981;SDS011;7065;50.880;5.502;2023-04-06T11:17:33;11.13;;;9.07;;
13981;SDS011;7065;50.880;5.502;2023-04-06T11:20:01;10.68;;;8.32;;
13981;SDS011;7065;50.880;5.502;2023-04-06T11:22:28;13.32;;;9.10;;
13981;SDS011;7065;50.880;5.502;2023-04-06T11:25:04;10.98;;;8.80;;
13981;SDS011;7065;50.880;5.502;2023-04-06T11:27:35;10.65;;;8.30;;
13981;SDS011;7065;50.880;5.502;2023-04-06T11:30:02;10.60;;;8.23;;
13981;SDS011;7065;50.880;5.502;2023-04-06T11:32:38;10.75;;;8.32;;
13981;SDS011;7065;50.880;5.502;2023-04-06T11:35:18;9.82;;;8.43;;
13981;SDS011;7065;50.880;5.502;2023-04-06T11:37:45;10.55;;;8.68;;
13981;SDS011;7065;50.880;5.502;2023-04-06T11:40:11;11.93;;;8.77;;
13981;SDS011;7065;50.880;5.502;2023-04-06T11:42:37;11.93;;;8.88;;
13981;SDS011;7065;50.880;5.502;2023-04-06T11:45:03;12.23;;;9.30;;
13981;SDS011;7065;50.880;5.502;2023-04-06T11:47:35;14.77;;;9.02;;
13981;SDS011;7065;50.880;5.502;2023-04-06T11:50:08;13.85;;;9.90;;
13981;SDS011;7065;50.880;5.502;2023-04-06T11:52:36;14.40;;;10.27;;
13981;SDS011;7065;50.880;5.502;2023-04-06T11:57:42;11.75;;;9.13;;
13981;SDS011;7065;50.880;5.502;2023-04-06T12:00:08;14.98;;;8.85;;
13981;SDS011;7065;50.880;5.502;2023-04-06T12:02:35;11.35;;;9.27;;
13981;SDS011;7065;50.880;5.502;2023-04-06T12:05:02;11.45;;;9.35;;
13981;SDS011;7065;50.880;5.502;2023-04-06T12:07:29;11.65;;;9.23;;
13981;SDS011;7065;50.880;5.502;2023-04-06T12:09:55;13.75;;;9.85;;
13981;SDS011;7065;50.880;5.502;2023-04-06T12:12:21;12.20;;;8.93;;
13981;SDS011;7065;50.880;5.502;2023-04-06T12:14:46;13.23;;;8.57;;
13981;SDS011;7065;50.880;5.502;2023-04-06T12:17:12;10.70;;;8.07;;
13981;SDS011;7065;50.880;5.502;2023-04-06T12:19:38;12.23;;;8.20;;
13981;SDS011;7065;50.880;5.502;2023-04-06T12:22:04;10.73;;;8.02;;
13981;SDS011;7065;50.880;5.502;2023-04-06T12:24:30;9.00;;;7.57;;
13981;SDS011;7065;50.880;5.502;2023-04-06T12:26:56;10.15;;;7.78;;
13981;SDS011;7065;50.880;5.502;2023-04-06T12:29:23;9.57;;;8.30;;
13981;SDS011;7065;50.880;5.502;2023-04-06T12:31:49;10.95;;;8.77;;
13981;SDS011;7065;50.880;5.502;2023-04-06T12:34:16;10.45;;;8.63;;
13981;SDS011;7065;50.880;5.502;2023-04-06T12:36:41;11.27;;;8.90;;
13981;SDS011;7065;50.880;5.502;2023-04-06T12:39:07;9.68;;;8.27;;
13981;SDS011;7065;50.880;5.502;2023-04-06T12:41:33;10.40;;;8.48;;
13981;SDS011;7065;50.880;5.502;2023-04-06T12:43:59;9.80;;;8.50;;
13981;SDS011;7065;50.880;5.502;2023-04-06T12:46:26;10.98;;;8.20;;
13981;SDS011;7065;50.880;5.502;2023-04-06T12:48:54;12.45;;;9.20;;
13981;SDS011;7065;50.880;5.502;2023-04-06T12:51:21;10.90;;;8.88;;
13981;SDS011;7065;50.880;5.502;2023-04-06T12:53:47;11.48;;;8.80;;
13981;SDS011;7065;50.880;5.502;2023-04-06T12:56:14;14.30;;;9.77;;
13981;SDS011;7065;50.880;5.502;2023-04-06T12:58:40;12.88;;;9.10;;
13981;SDS011;7065;50.880;5.502;2023-04-06T13:01:07;12.52;;;10.23;;
13981;SDS011;7065;50.880;5.502;2023-04-06T13:03:33;12.77;;;9.68;;
13981;SDS011;7065;50.880;5.502;2023-04-06T13:05:59;12.32;;;9.40;;
13981;SDS011;7065;50.880;5.502;2023-04-06T13:08:25;14.50;;;9.82;;
13981;SDS011;7065;50.880;5.502;2023-04-06T13:10:52;11.07;;;9.75;;
13981;SDS011;7065;50.880;5.502;2023-04-06T13:13:23;11.63;;;8.70;;
13981;SDS011;7065;50.880;5.502;2023-04-06T13:15:50;11.20;;;8.45;;
13981;SDS011;7065;50.880;5.502;2023-04-06T13:18:16;11.07;;;9.27;;
13981;SDS011;7065;50.880;5.502;2023-04-06T13:20:42;9.60;;;8.38;;
13981;SDS011;7065;50.880;5.502;2023-04-06T13:23:08;8.88;;;7.97;;
13981;SDS011;7065;50.880;5.502;2023-04-06T13:25:34;9.27;;;8.38;;
13981;SDS011;7065;50.880;5.502;2023-04-06T13:28:00;10.52;;;8.25;;
13981;SDS011;7065;50.880;5.502;2023-04-06T13:30:25;8.98;;;8.05;;
13981;SDS011;7065;50.880;5.502;2023-04-06T13:32:51;9.60;;;7.97;;
13981;SDS011;7065;50.880;5.502;2023-04-06T13:35:17;9.77;;;7.85;;
13981;SDS011;7065;50.880;5.502;2023-04-06T13:37:43;9.20;;;8.30;;
13981;SDS011;7065;50.880;5.502;2023-04-06T13:40:09;10.07;;;8.27;;
13981;SDS011;7065;50.880;5.502;2023-04-06T13:42:36;9.57;;;8.10;;
13981;SDS011;7065;50.880;5.502;2023-04-06T13:45:03;10.40;;;7.68;;
13981;SDS011;7065;50.880;5.502;2023-04-06T13:47:29;11.60;;;7.70;;
13981;SDS011;7065;50.880;5.502;2023-04-06T13:49:55;10.77;;;8.20;;
13981;SDS011;7065;50.880;5.502;2023-04-06T13:52:21;11.05;;;7.68;;
13981;SDS011;7065;50.880;5.502;2023-04-06T13:54:48;9.35;;;8.30;;
13981;SDS011;7065;50.880;5.502;2023-04-06T13:57:14;9.43;;;8.13;;
13981;SDS011;7065;50.880;5.502;2023-04-06T13:59:40;9.63;;;7.15;;
13981;SDS011;7065;50.880;5.502;2023-04-06T14:02:07;10.05;;;7.80;;
13981;SDS011;7065;50.880;5.502;2023-04-06T14:04:34;9.20;;;8.23;;
13981;SDS011;7065;50.880;5.502;2023-04-06T14:07:01;8.50;;;7.25;;
13981;SDS011;7065;50.880;5.502;2023-04-06T14:09:27;8.27;;;7.47;;
13981;SDS011;7065;50.880;5.502;2023-04-06T14:11:53;8.88;;;7.10;;
13981;SDS011;7065;50.880;5.502;2023-04-06T14:14:20;7.93;;;6.28;;
13981;SDS011;7065;50.880;5.502;2023-04-06T14:16:46;7.63;;;6.53;;
13981;SDS011;7065;50.880;5.502;2023-04-06T14:19:13;8.85;;;7.35;;
13981;SDS011;7065;50.880;5.502;2023-04-06T14:21:43;8.35;;;7.10;;
13981;SDS011;7065;50.880;5.502;2023-04-06T14:24:13;8.68;;;6.22;;
13981;SDS011;7065;50.880;5.502;2023-04-06T14:26:39;9.50;;;7.43;;
13981;SDS011;7065;50.880;5.502;2023-04-06T14:29:06;7.97;;;6.95;;
13981;SDS011;7065;50.880;5.502;2023-04-06T14:31:33;8.45;;;6.80;;
13981;SDS011;7065;50.880;5.502;2023-04-06T14:34:00;8.80;;;7.25;;
13981;SDS011;7065;50.880;5.502;2023-04-06T14:36:27;7.93;;;7.13;;
13981;SDS011;7065;50.880;5.502;2023-04-06T14:38:54;9.10;;;7.45;;
13981;SDS011;7065;50.880;5.502;2023-04-06T14:41:22;8.93;;;7.53;;
13981;SDS011;7065;50.880;5.502;2023-04-06T14:43:49;8.25;;;7.45;;
13981;SDS011;7065;50.880;5.502;2023-04-06T14:46:17;8.15;;;6.97;;